Roros, Roros Airport (ENRO)

NameRoros Airport
CityRoros
CountryNorway
ICAOENRO
IATARRS
Altitude626 m
CoordinatesGoogle Map
Live Air TrafficLiveATC.net
METARENRO 131250Z 00000KT 9999 FEW010 M20/M22 Q1030
2018-12-13 12:50:00 Wind: North (0°) 0 m/s - Visibility: > 10000 m - Temperature: -20 °C - Dew point: -22 °C - Humidity: 84.2% - Pressure: 1030 hPa
Statistics

The table below shows the detailed information of all flights to/from Roros, Roros Airport (ENRO).

Ident Aircraft Coming fromFrom Going toTo Owner nameOwnerSpotted durationDurationDate
LN-BDL - C172 - Not Available Not Available LNBDL REIMS 172 C172 Roros, Norway (ENRO) ENRO
289 km
Oslo, Norway (ENGM) ENGM
47 km
- - 00:26:11 00:26:11 Sat, 01 Dec 2018 13:51:59 +0000 1/12/2018 1:51 pm
Sat, 01 Dec 2018 14:18:10 +0000 1/12/2018 2:18 pm
LN-BDL - C172 - Not Available Not Available LNBDL REIMS 172 C172 Roros, Norway (ENRO) ENRO
299 km
Oslo, Norway (ENGM) ENGM
50 km
- - - - Mon, 19 Nov 2018 14:20:08 +0000 19/11/2018 2:20 pm
LN-BDL - C172 - Not Available Not Available LNBDL REIMS 172 C172 Roros, Norway (ENRO) ENRO
283 km
Oslo, Norway (ENGM) ENGM
43 km
- - 00:12:39 00:12:39 Mon, 12 Nov 2018 14:42:59 +0000 12/11/2018 2:42 pm
Mon, 12 Nov 2018 14:55:38 +0000 12/11/2018 2:55 pm
LN-BDL - C172 - Not Available Not Available LNBDL REIMS 172 C172 Roros, Norway (ENRO) ENRO
278 km
Oslo, Norway (ENGM) ENGM
45 km
- - 00:22:49 00:22:49 Mon, 12 Nov 2018 13:23:28 +0000 12/11/2018 1:23 pm
Mon, 12 Nov 2018 13:46:17 +0000 12/11/2018 1:46 pm